Kaministiqua — CFN4612 — position and weather

sailwx.info

Track history (hours):
 
Tides and Currents Weather Stations Pressure Air Temp Water Temp Dewpoint Dewpoint Depression Visibility Wind Speed Wind Dir Waves Ship Positions

Kaministiqua

Last reported at 2017-Sep-19 14:07 UTC. Time now 2017-Sep-25 02:54 UTC.
Position N 45°30' W 073°31'.

Length 223 m; draft 7.4 m.

Type: Ship. MMSI: 316009457.

Date/timePositionNaut miles runAvg speedWind from/ knotsBaromVisibWave heightAir tempDewpointWater temp
2017-Sep-19 14:07N 45°30' W 073°31'1 0.5
2017-Sep-19 12:57N 45°30' W 073°31'1 1.4
2017-Sep-19 12:29N 45°29' W 073°31'2 5.0
2017-Sep-19 12:00N 45°27' W 073°30'3 5.2
2017-Sep-19 11:30N 45°24' W 073°32'1 2.2
2017-Sep-19 10:55N 45°24' W 073°34'0 0.6
2017-Sep-19 10:30N 45°24' W 073°34'2 2.9
2017-Sep-19 09:58N 45°24' W 073°37'2 5.1
2017-Sep-19 09:30N 45°25' W 073°40'3 5.7
2017-Sep-19 09:00N 45°24' W 073°44'510.0
2017-Sep-19 08:30N 45°22' W 073°50'4 9.0
2017-Sep-19 08:00N 45°19' W 073°55'0 0.4
2017-Sep-19 07:30N 45°19' W 073°55'1 1.5
2017-Sep-19 07:00N 45°18' W 073°56'0 0.4
2017-Sep-19 06:30N 45°18' W 073°56'2 3.1
2017-Sep-19 06:00N 45°17' W 073°57'4 7.7
2017-Sep-19 05:30N 45°14' W 074°00'5 7.6
2017-Sep-19 04:55N 45°14' W 074°07'410.1
2017-Sep-19 04:30N 45°14' W 074°13'1110.7
2017-Sep-19 03:27N 45°08' W 074°26'  
2017-Sep-16 03:42N 44°43' W 082°48'511.7
2017-Sep-16 03:17N 44°48' W 082°50'4811.4
2017-Sep-15 23:04N 45°31' W 083°18'211.6
2017-Sep-15 22:55N 45°32' W 083°20'1211.6
2017-Sep-15 21:55N 45°41' W 083°32'511.7
2017-Sep-15 21:30N 45°44' W 083°37'111 7.9
2017-Sep-15 07:27N 47°01' W 085°33'711.6
2017-Sep-15 06:53N 47°05' W 085°41'  
2017-Sep-12 05:11N 46°12' W 084°07'210.2
2017-Sep-12 05:00N 46°11' W 084°05'2710.4
2017-Sep-12 02:28N 45°48' W 083°45'612.4
2017-Sep-12 01:58N 45°43' W 083°40'612.3
2017-Sep-12 01:30N 45°38' W 083°35'612.2
2017-Sep-12 01:00N 45°33' W 083°30'612.2
2017-Sep-12 00:30N 45°28' W 083°26'612.3
2017-Sep-12 00:00N 45°23' W 083°21'  
Track history (hours):
 
Tides and Currents Weather Stations Pressure Air Temp Water Temp Dewpoint Dewpoint Depression Visibility Wind Speed Wind Dir Waves Ship Positions

Kaministiqua

Last reported at 2017-Sep-19 14:07 UTC. Time now 2017-Sep-25 02:54 UTC.
Position N 45°30' W 073°31'.

Length 223 m; draft 7.4 m.

Type: Ship. MMSI: 316009457.

Date/timePositionNaut miles runAvg speedWind from/ knotsBaromVisibWave heightAir tempDewpointWater temp
2017-Sep-19 14:07N 45°30' W 073°31'1 0.5
2017-Sep-19 12:57N 45°30' W 073°31'1 1.4
2017-Sep-19 12:29N 45°29' W 073°31'2 5.0
2017-Sep-19 12:00N 45°27' W 073°30'3 5.2
2017-Sep-19 11:30N 45°24' W 073°32'1 2.2
2017-Sep-19 10:55N 45°24' W 073°34'0 0.6
2017-Sep-19 10:30N 45°24' W 073°34'2 2.9
2017-Sep-19 09:58N 45°24' W 073°37'2 5.1
2017-Sep-19 09:30N 45°25' W 073°40'3 5.7
2017-Sep-19 09:00N 45°24' W 073°44'510.0
2017-Sep-19 08:30N 45°22' W 073°50'4 9.0
2017-Sep-19 08:00N 45°19' W 073°55'0 0.4
2017-Sep-19 07:30N 45°19' W 073°55'1 1.5
2017-Sep-19 07:00N 45°18' W 073°56'0 0.4
2017-Sep-19 06:30N 45°18' W 073°56'2 3.1
2017-Sep-19 06:00N 45°17' W 073°57'4 7.7
2017-Sep-19 05:30N 45°14' W 074°00'5 7.6
2017-Sep-19 04:55N 45°14' W 074°07'410.1
2017-Sep-19 04:30N 45°14' W 074°13'1110.7
2017-Sep-19 03:27N 45°08' W 074°26'  
2017-Sep-16 03:42N 44°43' W 082°48'511.7
2017-Sep-16 03:17N 44°48' W 082°50'4811.4
2017-Sep-15 23:04N 45°31' W 083°18'211.6
2017-Sep-15 22:55N 45°32' W 083°20'1211.6
2017-Sep-15 21:55N 45°41' W 083°32'511.7
2017-Sep-15 21:30N 45°44' W 083°37'111 7.9
2017-Sep-15 07:27N 47°01' W 085°33'711.6
2017-Sep-15 06:53N 47°05' W 085°41'  
2017-Sep-12 05:11N 46°12' W 084°07'210.2
2017-Sep-12 05:00N 46°11' W 084°05'2710.4
2017-Sep-12 02:28N 45°48' W 083°45'612.4
2017-Sep-12 01:58N 45°43' W 083°40'612.3
2017-Sep-12 01:30N 45°38' W 083°35'612.2
2017-Sep-12 01:00N 45°33' W 083°30'612.2
2017-Sep-12 00:30N 45°28' W 083°26'612.3
2017-Sep-12 00:00N 45°23' W 083°21'  

Dump ship's entire track history